Time;durP1;ratioP1;P1;durP2;ratioP2;P2;SDS_P1;SDS_P2;PMS_P1;PMS_P2;Temp;Humidity;BMP_temperature;BMP_pressure;BME280_temperature;BME280_humidity;BME280_pressure;Samples;Min_cycle;Max_cycle;Signal;HPM_P1;HPM_P2
2022/06/07 00:00:43;;;;;;;3.78;3.47;;;;;;;;;;2075838;28;20189;-55
2022/06/07 00:01:44;;;;;;;3.72;3.53;;;;;;;;;;2075633;28;20184;-56
2022/06/07 00:02:44;;;;;;;3.63;3.42;;;;;;;;;;2074602;28;20173;-52
2022/06/07 00:03:44;;;;;;;4.97;4.38;;;;;;;;;;2075015;28;20204;-51
2022/06/07 00:04:45;;;;;;;4.50;3.85;;;;;;;;;;2074632;28;20173;-53
2022/06/07 00:05:46;;;;;;;4.80;4.40;;;;;;;;;;2075307;28;20208;-55
2022/06/07 00:06:46;;;;;;;5.28;4.60;;;;;;;;;;2075808;28;20180;-57
2022/06/07 00:07:46;;;;;;;4.40;4.10;;;;;;;;;;2075545;28;20271;-53
2022/06/07 00:08:47;;;;;;;4.97;4.57;;;;;;;;;;2075364;28;20177;-51
2022/06/07 00:09:47;;;;;;;4.80;4.50;;;;;;;;;;2075290;28;20195;-54
2022/06/07 00:10:48;;;;;;;5.20;4.78;;;;;;;;;;2075428;28;20249;-57
2022/06/07 00:11:49;;;;;;;5.00;4.60;;;;;;;;;;2075118;28;20200;-54
2022/06/07 00:12:49;;;;;;;5.05;4.63;;;;;;;;;;2075006;28;20180;-51
2022/06/07 00:13:50;;;;;;;5.20;4.80;;;;;;;;;;2074493;28;20704;-57
2022/06/07 00:14:50;;;;;;;4.80;4.40;;;;;;;;;;2073747;28;20176;-55
2022/06/07 00:15:50;;;;;;;4.35;3.95;;;;;;;;;;2074569;28;20259;-52
2022/06/07 00:16:51;;;;;;;4.75;4.35;;;;;;;;;;2074705;28;20188;-52
2022/06/07 00:17:51;;;;;;;4.65;4.35;;;;;;;;;;2075377;28;20168;-57
2022/06/07 00:18:52;;;;;;;5.45;4.95;;;;;;;;;;2075317;28;20177;-55
2022/06/07 00:19:52;;;;;;;5.13;4.65;;;;;;;;;;2075385;28;20244;-55
2022/06/07 00:20:52;;;;;;;5.53;4.75;;;;;;;;;;2074696;28;20200;-54
2022/06/07 00:21:53;;;;;;;5.72;5.07;;;;;;;;;;2074520;28;20200;-53
2022/06/07 00:22:53;;;;;;;6.22;4.57;;;;;;;;;;2074028;28;20175;-53
2022/06/07 00:23:53;;;;;;;5.57;5.18;;;;;;;;;;2074202;28;20207;-54
2022/06/07 00:24:54;;;;;;;5.68;5.25;;;;;;;;;;2073288;28;20259;-55
2022/06/07 00:25:54;;;;;;;5.85;5.25;;;;;;;;;;2074102;28;20181;-55
2022/06/07 00:26:55;;;;;;;5.57;4.95;;;;;;;;;;2073972;28;20196;-51
2022/06/07 00:27:55;;;;;;;5.72;5.28;;;;;;;;;;2073785;28;20263;-55
2022/06/07 00:28:56;;;;;;;5.40;4.95;;;;;;;;;;2074216;28;20169;-52
2022/06/07 00:29:57;;;;;;;5.28;4.88;;;;;;;;;;2073697;28;20233;-56
2022/06/07 00:30:57;;;;;;;5.32;4.93;;;;;;;;;;2074285;28;20575;-55
2022/06/07 00:31:59;;;;;;;5.47;4.97;;;;;;;;;;2074198;28;20185;-50
2022/06/07 00:32:59;;;;;;;6.57;5.97;;;;;;;;;;2074357;28;20201;-54
2022/06/07 00:34:00;;;;;;;5.55;5.15;;;;;;;;;;2066887;28;20190;-52
2022/06/07 00:35:01;;;;;;;6.10;5.60;;;;;;;;;;2072495;28;20180;-57
2022/06/07 00:36:02;;;;;;;6.28;5.78;;;;;;;;;;2073560;28;20208;-56
2022/06/07 00:37:02;;;;;;;5.68;5.28;;;;;;;;;;2073519;28;20228;-53
2022/06/07 00:38:03;;;;;;;5.45;5.03;;;;;;;;;;2073525;28;20177;-56
2022/06/07 00:39:04;;;;;;;5.55;5.15;;;;;;;;;;2065161;28;20190;-55
2022/06/07 00:40:04;;;;;;;6.00;5.50;;;;;;;;;;2073285;28;20215;-54
2022/06/07 00:41:05;;;;;;;5.35;4.95;;;;;;;;;;2073778;28;20637;-53
2022/06/07 00:42:05;;;;;;;6.00;5.50;;;;;;;;;;2074197;28;20180;-55
2022/06/07 00:43:06;;;;;;;5.93;5.20;;;;;;;;;;2074160;28;20337;-55
2022/06/07 00:44:21;;;;;;;5.13;4.75;;;;;;;;;;2072699;28;20224;-55
2022/06/07 00:45:22;;;;;;;6.45;4.90;;;;;;;;;;2073508;28;20176;-55
2022/06/07 00:46:22;;;;;;;4.85;4.55;;;;;;;;;;2066029;28;20606;-54
2022/06/07 00:47:24;;;;;;;6.78;4.80;;;;;;;;;;2074512;28;20271;-53
2022/06/07 00:48:25;;;;;;;5.22;4.80;;;;;;;;;;2075906;28;20168;-55
2022/06/07 00:49:31;;;;;;;7.70;5.03;;;;;;;;;;2066475;28;20212;-56
2022/06/07 00:50:35;;;;;;;5.63;5.15;;;;;;;;;;2063173;28;20196;-52
2022/06/07 00:51:36;;;;;;;4.68;4.38;;;;;;;;;;2074098;28;20181;-52
2022/06/07 00:52:36;;;;;;;5.45;4.60;;;;;;;;;;2066600;28;20174;-56
2022/06/07 00:53:37;;;;;;;4.88;4.50;;;;;;;;;;2065481;28;20200;-51
2022/06/07 00:54:56;;;;;;;5.20;4.80;;;;;;;;;;2066429;28;20204;-56
2022/06/07 00:56:17;;;;;;;4.95;4.57;;;;;;;;;;2071642;28;20167;-54
2022/06/07 00:57:18;;;;;;;5.55;5.15;;;;;;;;;;2074035;28;20181;-55
2022/06/07 00:58:18;;;;;;;4.95;4.60;;;;;;;;;;2075129;28;20200;-54
2022/06/07 00:59:20;;;;;;;4.85;4.50;;;;;;;;;;2066179;28;20178;-59
2022/06/07 01:00:23;;;;;;;5.45;4.93;;;;;;;;;;2075080;28;20196;-57
2022/06/07 01:01:24;;;;;;;5.72;5.22;;;;;;;;;;2059188;28;20186;-55
2022/06/07 01:02:25;;;;;;;5.28;4.88;;;;;;;;;;2058408;28;20227;-58
2022/06/07 01:03:26;;;;;;;4.90;4.45;;;;;;;;;;2074578;28;20271;-55
2022/06/07 01:04:28;;;;;;;4.78;4.38;;;;;;;;;;2065321;28;20189;-58
2022/06/07 01:05:30;;;;;;;5.38;4.97;;;;;;;;;;2066504;28;20201;-55
2022/06/07 01:10:46;;;;;;;5.97;5.40;;;;;;;;;;2073967;28;20176;-54
2022/06/07 01:11:59;;;;;;;5.55;5.15;;;;;;;;;;2069623;28;20176;-56
2022/06/07 01:13:00;;;;;;;6.10;5.32;;;;;;;;;;2057659;28;20293;-56
2022/06/07 01:14:02;;;;;;;5.43;4.85;;;;;;;;;;2076608;23;20745;-53
2022/06/07 01:15:06;;;;;;;6.25;5.75;;;;;;;;;;2071999;28;20212;-55
2022/06/07 01:16:08;;;;;;;6.40;5.60;;;;;;;;;;2079413;28;20172;-55
2022/06/07 01:17:19;;;;;;;5.82;5.43;;;;;;;;;;2080950;28;20168;-52
2022/06/07 01:18:19;;;;;;;6.18;5.68;;;;;;;;;;2071188;28;20204;-54
2022/06/07 01:19:20;;;;;;;6.72;6.10;;;;;;;;;;2081247;28;20179;-51
2022/06/07 01:20:20;;;;;;;6.00;5.50;;;;;;;;;;2089407;28;20704;-54
2022/06/07 01:21:28;;;;;;;5.20;4.80;;;;;;;;;;2082129;28;20340;-54
2022/06/07 01:22:28;;;;;;;5.68;5.28;;;;;;;;;;2074880;28;20177;-52
2022/06/07 01:23:30;;;;;;;6.32;5.57;;;;;;;;;;2080719;28;20250;-54
2022/06/07 01:24:30;;;;;;;6.10;5.57;;;;;;;;;;2075246;28;20192;-55
2022/06/07 01:25:35;;;;;;;6.05;5.60;;;;;;;;;;2065564;28;20192;-61
2022/06/07 01:26:36;;;;;;;6.40;5.90;;;;;;;;;;2073855;28;20173;-53
2022/06/07 01:27:39;;;;;;;6.00;5.50;;;;;;;;;;2073027;28;20208;-52
2022/06/07 01:28:40;;;;;;;6.18;5.68;;;;;;;;;;2073377;28;20279;-55
2022/06/07 01:29:42;;;;;;;6.50;5.90;;;;;;;;;;2079287;28;20744;-52
2022/06/07 01:30:44;;;;;;;6.65;6.15;;;;;;;;;;2073005;28;20654;-53
2022/06/07 01:31:45;;;;;;;6.45;5.95;;;;;;;;;;2079712;28;20176;-55
2022/06/07 01:32:48;;;;;;;7.18;6.47;;;;;;;;;;2089245;28;20171;-54
2022/06/07 01:33:49;;;;;;;7.63;6.93;;;;;;;;;;2085533;28;20164;-54
2022/06/07 01:34:49;;;;;;;7.13;6.50;;;;;;;;;;2080166;28;20748;-51
2022/06/07 01:35:59;;;;;;;7.75;7.05;;;;;;;;;;2081270;28;20204;-52
2022/06/07 01:37:00;;;;;;;8.02;6.82;;;;;;;;;;2081277;28;20890;-52
2022/06/07 01:38:04;;;;;;;9.70;7.22;;;;;;;;;;2081746;28;20176;-55
2022/06/07 01:41:55;;;;;;;8.50;7.68;;;;;;;;;;2081309;28;20251;-54
2022/06/07 01:42:57;;;;;;;7.75;7.05;;;;;;;;;;2089509;28;20159;-53
2022/06/07 01:43:59;;;;;;;8.80;7.38;;;;;;;;;;2080763;28;20707;-54
2022/06/07 01:45:01;;;;;;;8.80;7.95;;;;;;;;;;2073094;28;20173;-54
2022/06/07 01:46:03;;;;;;;7.88;7.05;;;;;;;;;;2073263;28;20195;-55
2022/06/07 01:47:05;;;;;;;9.73;7.97;;;;;;;;;;2080944;28;20596;-56
2022/06/07 01:48:07;;;;;;;8.48;7.78;;;;;;;;;;2073305;28;20176;-52
2022/06/07 01:49:08;;;;;;;8.60;7.90;;;;;;;;;;2081000;28;20616;-52
2022/06/07 01:50:09;;;;;;;8.30;7.57;;;;;;;;;;2081338;28;20607;-56
2022/06/07 01:51:10;;;;;;;9.68;8.88;;;;;;;;;;2081518;28;20172;-55
2022/06/07 01:52:11;;;;;;;9.05;8.10;;;;;;;;;;2081073;28;20168;-55
2022/06/07 01:53:14;;;;;;;8.70;7.90;;;;;;;;;;2081377;28;20191;-54
2022/06/07 01:54:16;;;;;;;9.05;8.18;;;;;;;;;;2080886;28;20680;-53
2022/06/07 01:55:16;;;;;;;11.18;9.45;;;;;;;;;;2082416;28;20191;-54
2022/06/07 01:56:24;;;;;;;10.23;8.88;;;;;;;;;;2081213;28;20163;-52
2022/06/07 01:57:28;;;;;;;10.05;8.98;;;;;;;;;;2073239;28;20180;-53
2022/06/07 01:58:30;;;;;;;11.70;10.18;;;;;;;;;;2073286;28;20305;-52
2022/06/07 01:59:31;;;;;;;10.75;9.57;;;;;;;;;;2073092;28;20181;-54
2022/06/07 02:00:32;;;;;;;10.65;9.63;;;;;;;;;;2072858;28;20693;-55
2022/06/07 02:01:33;;;;;;;11.10;10.00;;;;;;;;;;2072956;28;20264;-54
2022/06/07 02:02:33;;;;;;;16.60;11.88;;;;;;;;;;2081223;28;20570;-56
2022/06/07 02:03:34;;;;;;;13.38;12.00;;;;;;;;;;2080947;28;20195;-53
2022/06/07 02:04:36;;;;;;;15.90;12.70;;;;;;;;;;2072609;28;20189;-53
2022/06/07 02:05:36;;;;;;;15.40;13.82;;;;;;;;;;2081254;28;20168;-54
2022/06/07 02:06:37;;;;;;;13.68;12.27;;;;;;;;;;2080628;28;20169;-52
2022/06/07 02:07:37;;;;;;;13.93;12.43;;;;;;;;;;2073078;28;20177;-54
2022/06/07 02:08:41;;;;;;;13.82;12.35;;;;;;;;;;2073166;28;20176;-57
2022/06/07 02:09:44;;;;;;;16.40;13.48;;;;;;;;;;2080890;28;20604;-53
2022/06/07 02:10:45;;;;;;;15.60;13.93;;;;;;;;;;2080891;28;20179;-53
2022/06/07 02:11:51;;;;;;;15.93;13.50;;;;;;;;;;2080869;28;20188;-55
2022/06/07 02:12:51;;;;;;;17.33;14.85;;;;;;;;;;2081072;28;20188;-55
2022/06/07 02:13:55;;;;;;;16.65;14.27;;;;;;;;;;2080408;28;20541;-53
2022/06/07 02:14:55;;;;;;;16.92;14.70;;;;;;;;;;2080310;28;20188;-53
2022/06/07 02:15:55;;;;;;;20.70;15.30;;;;;;;;;;2072812;28;20176;-56
2022/06/07 02:16:56;;;;;;;17.83;15.93;;;;;;;;;;2080734;28;20168;-53
2022/06/07 02:18:02;;;;;;;16.13;14.43;;;;;;;;;;2073415;28;20184;-54
2022/06/07 02:19:38;;;;;;;18.60;15.75;;;;;;;;;;2057635;28;20223;-53
2022/06/07 02:20:38;;;;;;;20.88;15.30;;;;;;;;;;2081006;28;20184;-57
2022/06/07 02:21:39;;;;;;;20.83;15.65;;;;;;;;;;2072942;28;20173;-55
2022/06/07 02:22:41;;;;;;;18.10;15.20;;;;;;;;;;2062626;28;20210;-54
2022/06/07 02:23:41;;;;;;;17.08;15.25;;;;;;;;;;2064476;28;20525;-56
2022/06/07 02:24:42;;;;;;;18.67;15.95;;;;;;;;;;2072711;28;20185;-55
2022/06/07 02:25:44;;;;;;;18.67;15.57;;;;;;;;;;2080913;28;20612;-51
2022/06/07 02:26:49;;;;;;;20.75;15.57;;;;;;;;;;2081175;28;20176;-56
2022/06/07 02:27:50;;;;;;;20.02;15.95;;;;;;;;;;2080943;28;20180;-56
2022/06/07 02:29:03;;;;;;;16.85;15.07;;;;;;;;;;2072733;28;20256;-55
2022/06/07 02:30:04;;;;;;;17.23;14.25;;;;;;;;;;2081301;28;20548;-56
2022/06/07 02:31:05;;;;;;;18.85;16.75;;;;;;;;;;2081433;28;20298;-53
2022/06/07 02:32:08;;;;;;;20.70;15.18;;;;;;;;;;2080892;28;20187;-52
2022/06/07 02:33:09;;;;;;;19.55;16.73;;;;;;;;;;2080845;28;20172;-53
2022/06/07 02:34:10;;;;;;;20.65;16.67;;;;;;;;;;2072999;28;20222;-56
2022/06/07 02:35:11;;;;;;;19.25;16.48;;;;;;;;;;2080996;28;20251;-56
2022/06/07 02:36:12;;;;;;;21.63;16.52;;;;;;;;;;2088930;28;20171;-55
2022/06/07 02:37:13;;;;;;;19.38;15.88;;;;;;;;;;2080932;28;20191;-54
2022/06/07 02:38:14;;;;;;;19.35;16.73;;;;;;;;;;2072755;28;20560;-52
2022/06/07 02:39:14;;;;;;;21.63;16.95;;;;;;;;;;2072426;28;20177;-55
2022/06/07 02:40:15;;;;;;;21.30;16.02;;;;;;;;;;2072745;28;20260;-54
2022/06/07 02:41:18;;;;;;;17.48;14.82;;;;;;;;;;2080848;28;20164;-55
2022/06/07 02:42:20;;;;;;;20.90;16.15;;;;;;;;;;2080822;28;20180;-53
2022/06/07 02:43:20;;;;;;;18.55;15.50;;;;;;;;;;2072770;28;20650;-55
2022/06/07 02:44:20;;;;;;;20.08;16.50;;;;;;;;;;2079893;28;20207;-55
2022/06/07 02:45:21;;;;;;;19.45;17.08;;;;;;;;;;2081496;28;20172;-55
2022/06/07 02:46:21;;;;;;;18.95;16.70;;;;;;;;;;2080472;28;20525;-52
2022/06/07 02:47:22;;;;;;;19.98;16.83;;;;;;;;;;2080937;28;20573;-56
2022/06/07 02:48:28;;;;;;;19.88;16.70;;;;;;;;;;2073047;28;20222;-54
2022/06/07 02:49:30;;;;;;;21.10;16.67;;;;;;;;;;2072677;28;20703;-53
2022/06/07 02:50:30;;;;;;;22.88;17.83;;;;;;;;;;2072350;28;20181;-53
2022/06/07 02:51:30;;;;;;;19.40;16.60;;;;;;;;;;2072721;28;20185;-53
2022/06/07 02:52:31;;;;;;;19.63;16.92;;;;;;;;;;2064578;28;20185;-54
2022/06/07 02:53:49;;;;;;;21.08;17.77;;;;;;;;;;2066661;28;20249;-55
2022/06/07 02:54:50;;;;;;;21.80;17.88;;;;;;;;;;2071742;28;20225;-56
2022/06/07 02:55:50;;;;;;;21.13;16.95;;;;;;;;;;2077316;28;20167;-54
2022/06/07 02:56:55;;;;;;;22.45;18.02;;;;;;;;;;2073250;28;20169;-56
2022/06/07 02:57:56;;;;;;;21.85;18.02;;;;;;;;;;2072695;28;20200;-56
2022/06/07 02:58:59;;;;;;;21.65;17.67;;;;;;;;;;2073014;28;20176;-52
2022/06/07 03:00:03;;;;;;;22.00;17.45;;;;;;;;;;2072531;28;20669;-55
2022/06/07 03:01:03;;;;;;;21.75;16.63;;;;;;;;;;2072788;28;20219;-54
2022/06/07 03:02:10;;;;;;;20.20;18.02;;;;;;;;;;2080853;28;20244;-52
2022/06/07 03:03:11;;;;;;;20.38;17.70;;;;;;;;;;2081008;28;20168;-52
2022/06/07 03:04:14;;;;;;;19.08;16.52;;;;;;;;;;2071748;28;20200;-54
2022/06/07 03:05:17;;;;;;;20.30;17.70;;;;;;;;;;2080878;28;20171;-52
2022/06/07 03:06:24;;;;;;;21.20;17.13;;;;;;;;;;2080852;28;20161;-53
2022/06/07 03:07:26;;;;;;;19.40;17.20;;;;;;;;;;2080865;28;20548;-53
2022/06/07 03:08:30;;;;;;;23.05;17.80;;;;;;;;;;2072739;28;20231;-55
2022/06/07 03:09:34;;;;;;;24.75;17.45;;;;;;;;;;2073621;28;20681;-56
2022/06/07 03:10:36;;;;;;;24.25;19.08;;;;;;;;;;2072906;28;20746;-53
2022/06/07 03:11:38;;;;;;;21.20;17.92;;;;;;;;;;2073219;28;20188;-55
2022/06/07 03:12:39;;;;;;;19.58;17.52;;;;;;;;;;2072694;28;20236;-55
2022/06/07 03:13:46;;;;;;;23.58;18.58;;;;;;;;;;2074274;28;20199;-53
2022/06/07 03:14:51;;;;;;;22.00;17.15;;;;;;;;;;2087471;28;20214;-52
2022/06/07 03:15:52;;;;;;;21.95;17.67;;;;;;;;;;2081024;28;20176;-55
2022/06/07 03:16:55;;;;;;;22.13;17.60;;;;;;;;;;2073135;28;20701;-56
2022/06/07 03:17:58;;;;;;;20.98;17.48;;;;;;;;;;2074685;28;20169;-55
2022/06/07 03:19:07;;;;;;;23.65;17.88;;;;;;;;;;2082624;28;20252;-56
2022/06/07 03:20:11;;;;;;;25.95;18.58;;;;;;;;;;2075196;28;20165;-55
2022/06/07 03:21:13;;;;;;;24.65;18.75;;;;;;;;;;2074609;28;20179;-55
2022/06/07 03:22:17;;;;;;;26.90;19.50;;;;;;;;;;2081059;28;20176;-54
2022/06/07 03:23:18;;;;;;;23.83;18.00;;;;;;;;;;2081043;28;20199;-55
2022/06/07 03:24:26;;;;;;;21.70;19.35;;;;;;;;;;2073373;28;20189;-54
2022/06/07 03:25:27;;;;;;;26.02;18.90;;;;;;;;;;2075472;28;20232;-52
2022/06/07 03:26:34;;;;;;;21.17;18.88;;;;;;;;;;2082825;28;20307;-54
2022/06/07 03:27:40;;;;;;;23.17;19.15;;;;;;;;;;2075031;28;20197;-54
2022/06/07 03:28:44;;;;;;;23.08;19.70;;;;;;;;;;2074388;28;20747;-54
2022/06/07 03:29:47;;;;;;;25.40;19.80;;;;;;;;;;2074381;28;20812;-52
2022/06/07 03:30:53;;;;;;;20.40;18.02;;;;;;;;;;2074745;28;21281;-55
2022/06/07 03:31:54;;;;;;;21.60;18.60;;;;;;;;;;2074311;28;20205;-55
2022/06/07 03:32:59;;;;;;;27.13;19.77;;;;;;;;;;2082523;28;20176;-55
2022/06/07 03:34:02;;;;;;;20.85;18.42;;;;;;;;;;2079975;28;20653;-53
2022/06/07 03:35:09;;;;;;;22.65;20.25;;;;;;;;;;2082807;28;20168;-51
2022/06/07 03:36:15;;;;;;;23.52;19.83;;;;;;;;;;2066372;28;20220;-56
2022/06/07 03:37:16;;;;;;;23.45;20.25;;;;;;;;;;2075050;28;22426;-53
2022/06/07 03:38:17;;;;;;;24.10;19.88;;;;;;;;;;2082116;28;20867;-56
2022/06/07 03:39:20;;;;;;;24.73;19.48;;;;;;;;;;2066163;28;20162;-53
2022/06/07 03:40:43;;;;;;;23.25;19.60;;;;;;;;;;2075832;28;20615;-52
2022/06/07 03:41:45;;;;;;;21.92;18.65;;;;;;;;;;2075903;28;20169;-55
2022/06/07 03:42:53;;;;;;;24.67;19.75;;;;;;;;;;2075140;28;20581;-55
2022/06/07 03:43:53;;;;;;;22.88;18.75;;;;;;;;;;2081844;28;20188;-54
2022/06/07 03:44:54;;;;;;;22.70;19.23;;;;;;;;;;2081860;28;20172;-54
2022/06/07 03:45:54;;;;;;;21.42;18.55;;;;;;;;;;2073611;28;20231;-56
2022/06/07 03:46:54;;;;;;;22.05;18.90;;;;;;;;;;2082379;28;20284;-55
2022/06/07 03:47:55;;;;;;;24.73;19.42;;;;;;;;;;2082761;28;20165;-55
2022/06/07 03:48:56;;;;;;;22.63;19.42;;;;;;;;;;2073960;28;20176;-56
2022/06/07 03:49:58;;;;;;;24.38;18.83;;;;;;;;;;2074168;28;20164;-56
2022/06/07 03:51:02;;;;;;;21.42;18.02;;;;;;;;;;2074013;28;20181;-54
2022/06/07 03:52:06;;;;;;;24.77;19.48;;;;;;;;;;2074290;28;20580;-56
2022/06/07 03:53:11;;;;;;;20.15;18.05;;;;;;;;;;2074464;28;20736;-56
2022/06/07 03:54:15;;;;;;;19.75;17.63;;;;;;;;;;2073314;28;20283;-53
2022/06/07 03:55:18;;;;;;;18.13;16.23;;;;;;;;;;2082309;28;20563;-54
2022/06/07 03:56:35;;;;;;;17.75;15.95;;;;;;;;;;2082023;28;20172;-55
2022/06/07 03:57:38;;;;;;;18.58;15.77;;;;;;;;;;2074163;28;20232;-55
2022/06/07 03:58:38;;;;;;;18.15;16.27;;;;;;;;;;2081699;28;20204;-57
2022/06/07 03:59:39;;;;;;;19.40;16.42;;;;;;;;;;2074097;28;20193;-56
2022/06/07 04:00:40;;;;;;;17.83;15.40;;;;;;;;;;2082017;28;20521;-55
2022/06/07 04:01:42;;;;;;;19.75;15.93;;;;;;;;;;2082191;28;20637;-55
2022/06/07 04:02:43;;;;;;;16.67;15.00;;;;;;;;;;2081859;28;20227;-55
2022/06/07 04:03:47;;;;;;;16.63;14.77;;;;;;;;;;2082281;28;20323;-54
2022/06/07 04:04:47;;;;;;;19.13;13.88;;;;;;;;;;2080796;28;20165;-54
2022/06/07 04:05:48;;;;;;;20.17;14.90;;;;;;;;;;2073648;28;20224;-55
2022/06/07 04:08:19;;;;;;;14.38;12.80;;;;;;;;;;2077364;28;20186;-53
2022/06/07 04:09:23;;;;;;;16.00;14.27;;;;;;;;;;2074316;28;20219;-55
2022/06/07 04:10:23;;;;;;;14.55;13.05;;;;;;;;;;2082187;28;20274;-56
2022/06/07 04:11:25;;;;;;;22.05;13.73;;;;;;;;;;2081831;28;20199;-54
2022/06/07 04:12:30;;;;;;;14.50;13.10;;;;;;;;;;2074951;28;20189;-53
2022/06/07 04:13:31;;;;;;;14.18;12.77;;;;;;;;;;2082322;28;20176;-56
2022/06/07 04:14:39;;;;;;;13.80;12.30;;;;;;;;;;2080918;28;20700;-55
2022/06/07 04:15:40;;;;;;;13.65;12.25;;;;;;;;;;2082084;28;20219;-56
2022/06/07 04:16:40;;;;;;;13.25;11.95;;;;;;;;;;2074113;28;20173;-55
2022/06/07 04:17:48;;;;;;;13.82;11.88;;;;;;;;;;2074927;28;20224;-52
2022/06/07 04:19:00;;;;;;;13.93;12.30;;;;;;;;;;2075358;28;20542;-57
2022/06/07 04:20:02;;;;;;;13.30;11.93;;;;;;;;;;2073979;28;20264;-55
2022/06/07 04:21:05;;;;;;;13.90;12.05;;;;;;;;;;2074010;28;20243;-55
2022/06/07 04:22:05;;;;;;;13.00;11.57;;;;;;;;;;2082188;28;20172;-56
2022/06/07 04:23:14;;;;;;;12.63;11.48;;;;;;;;;;2073733;28;20173;-55
2022/06/07 04:24:14;;;;;;;15.48;11.85;;;;;;;;;;2065978;28;20856;-53
2022/06/07 04:25:15;;;;;;;15.73;11.30;;;;;;;;;;2081985;28;20215;-52
2022/06/07 04:26:18;;;;;;;12.50;11.40;;;;;;;;;;2081977;28;20176;-54
2022/06/07 04:27:20;;;;;;;12.88;11.38;;;;;;;;;;2074109;28;20700;-55
2022/06/07 04:28:25;;;;;;;12.93;11.70;;;;;;;;;;2081015;28;20751;-52
2022/06/07 04:29:26;;;;;;;12.95;11.40;;;;;;;;;;2081743;28;20176;-53
2022/06/07 04:30:30;;;;;;;12.27;11.10;;;;;;;;;;2073660;28;20181;-57
2022/06/07 04:31:34;;;;;;;13.77;11.32;;;;;;;;;;2066972;28;20304;-54
2022/06/07 04:32:46;;;;;;;13.98;11.85;;;;;;;;;;2066514;28;20197;-53
2022/06/07 04:33:48;;;;;;;13.60;10.85;;;;;;;;;;2067774;28;20181;-51
2022/06/07 04:34:52;;;;;;;13.50;10.55;;;;;;;;;;2073539;28;20267;-55
2022/06/07 04:35:55;;;;;;;13.13;11.50;;;;;;;;;;2082126;28;20195;-55
2022/06/07 04:36:58;;;;;;;12.93;11.63;;;;;;;;;;2074979;28;20177;-54
2022/06/07 04:38:01;;;;;;;13.35;11.02;;;;;;;;;;2075836;28;20203;-54
2022/06/07 04:39:08;;;;;;;13.45;12.05;;;;;;;;;;2074725;28;20197;-52
2022/06/07 04:40:35;;;;;;;13.88;10.95;;;;;;;;;;2081218;28;20183;-53
2022/06/07 04:41:37;;;;;;;12.10;10.90;;;;;;;;;;2082118;28;20687;-55
2022/06/07 04:42:41;;;;;;;13.30;11.93;;;;;;;;;;2065666;28;20661;-53
2022/06/07 04:43:51;;;;;;;12.70;11.50;;;;;;;;;;2072824;28;20157;-52
2022/06/07 04:44:53;;;;;;;12.15;10.95;;;;;;;;;;2089563;28;20209;-54
2022/06/07 04:46:03;;;;;;;12.90;11.13;;;;;;;;;;2081927;28;20184;-53
2022/06/07 04:47:03;;;;;;;12.02;10.90;;;;;;;;;;2073665;28;20207;-53
2022/06/07 04:48:05;;;;;;;12.10;10.90;;;;;;;;;;2073559;28;20181;-56
2022/06/07 04:49:08;;;;;;;12.10;10.90;;;;;;;;;;2066689;28;20227;-53
2022/06/07 04:50:11;;;;;;;13.65;10.38;;;;;;;;;;2073999;28;20251;-53
2022/06/07 04:51:13;;;;;;;11.65;10.55;;;;;;;;;;2073607;28;20256;-56
2022/06/07 04:52:18;;;;;;;11.35;10.35;;;;;;;;;;2074406;28;20188;-55
2022/06/07 04:53:19;;;;;;;11.77;10.77;;;;;;;;;;2082584;28;20180;-53
2022/06/07 04:54:19;;;;;;;11.88;10.60;;;;;;;;;;2073671;28;20188;-52
2022/06/07 04:55:21;;;;;;;11.02;9.93;;;;;;;;;;2077478;28;20597;-53
2022/06/07 04:56:25;;;;;;;14.32;10.27;;;;;;;;;;2077248;28;20188;-56
2022/06/07 04:57:25;;;;;;;11.63;10.48;;;;;;;;;;2085374;28;20215;-54
2022/06/07 04:58:26;;;;;;;12.32;11.13;;;;;;;;;;2075134;28;20677;-55
2022/06/07 04:59:28;;;;;;;12.50;10.48;;;;;;;;;;2073653;28;20165;-52
2022/06/07 05:00:34;;;;;;;12.32;9.82;;;;;;;;;;2081687;28;20200;-52
2022/06/07 05:01:38;;;;;;;11.05;10.05;;;;;;;;;;2073502;28;20175;-53
2022/06/07 05:02:45;;;;;;;12.00;10.68;;;;;;;;;;2067299;28;20174;-52
2022/06/07 05:03:45;;;;;;;14.65;10.68;;;;;;;;;;2081543;28;20218;-53
2022/06/07 05:04:46;;;;;;;11.15;10.10;;;;;;;;;;2080470;28;20271;-52
2022/06/07 05:05:56;;;;;;;10.65;9.63;;;;;;;;;;2074629;28;20681;-52
2022/06/07 05:06:57;;;;;;;11.23;10.13;;;;;;;;;;2081259;28;20263;-53
2022/06/07 05:08:08;;;;;;;10.93;9.82;;;;;;;;;;2081717;28;20167;-53
2022/06/07 05:09:13;;;;;;;11.93;9.38;;;;;;;;;;2081294;28;20178;-54
2022/06/07 05:10:16;;;;;;;10.63;9.60;;;;;;;;;;2076743;28;20179;-53
2022/06/07 05:11:20;;;;;;;13.45;10.65;;;;;;;;;;2074007;28;20165;-52
2022/06/07 05:12:20;;;;;;;17.00;10.35;;;;;;;;;;2081652;28;20168;-52
2022/06/07 05:13:23;;;;;;;11.90;10.48;;;;;;;;;;2081045;28;20727;-54
2022/06/07 05:14:24;;;;;;;12.05;10.85;;;;;;;;;;2080270;28;20224;-55
2022/06/07 05:15:24;;;;;;;12.38;11.13;;;;;;;;;;2081357;28;20659;-54
2022/06/07 05:16:45;;;;;;;14.30;10.02;;;;;;;;;;2079221;28;20188;-56
2022/06/07 05:17:52;;;;;;;9.75;8.77;;;;;;;;;;2081473;28;20278;-57
2022/06/07 05:18:54;;;;;;;14.93;10.15;;;;;;;;;;2073145;28;20200;-53
2022/06/07 05:19:55;;;;;;;10.40;8.15;;;;;;;;;;2073070;28;20211;-52
2022/06/07 05:20:56;;;;;;;11.02;9.27;;;;;;;;;;2073043;28;20181;-52
2022/06/07 05:21:56;;;;;;;9.88;8.70;;;;;;;;;;2066400;28;20165;-56
2022/06/07 05:22:57;;;;;;;10.50;9.52;;;;;;;;;;2073146;28;20169;-52
2022/06/07 05:23:58;;;;;;;9.60;8.65;;;;;;;;;;2072569;28;20545;-55
2022/06/07 05:24:59;;;;;;;12.55;9.10;;;;;;;;;;2081216;28;20175;-52
2022/06/07 05:26:05;;;;;;;10.80;9.75;;;;;;;;;;2081547;28;20153;-53
2022/06/07 05:27:07;;;;;;;12.45;9.75;;;;;;;;;;2082283;28;20184;-55
2022/06/07 05:28:12;;;;;;;12.13;9.27;;;;;;;;;;2078087;28;20165;-54
2022/06/07 05:29:28;;;;;;;10.88;9.63;;;;;;;;;;2073370;28;20196;-56
2022/06/07 05:30:29;;;;;;;11.73;10.50;;;;;;;;;;2070805;28;20173;-51
2022/06/07 05:31:55;;;;;;;11.23;10.15;;;;;;;;;;2073067;28;20180;-57
2022/06/07 05:32:56;;;;;;;10.77;9.82;;;;;;;;;;2082969;28;20172;-55
2022/06/07 05:34:20;;;;;;;11.95;9.30;;;;;;;;;;2080180;28;20576;-55
2022/06/07 05:35:24;;;;;;;11.98;10.75;;;;;;;;;;2079188;28;20172;-53
2022/06/07 05:36:37;;;;;;;11.68;10.35;;;;;;;;;;2082860;28;20749;-57
2022/06/07 05:37:39;;;;;;;12.55;10.05;;;;;;;;;;2083393;28;20546;-57
2022/06/07 05:38:50;;;;;;;10.65;9.52;;;;;;;;;;2075940;28;20717;-54
2022/06/07 05:39:54;;;;;;;13.07;9.80;;;;;;;;;;2082321;28;20172;-55
2022/06/07 05:40:54;;;;;;;10.40;9.40;;;;;;;;;;2073103;28;20188;-56
2022/06/07 05:41:55;;;;;;;10.98;9.95;;;;;;;;;;2073303;28;20177;-56
2022/06/07 05:42:57;;;;;;;11.55;9.45;;;;;;;;;;2072167;28;20172;-58
2022/06/07 05:44:09;;;;;;;10.93;9.93;;;;;;;;;;2078109;28;20198;-56
2022/06/07 05:45:13;;;;;;;10.93;9.50;;;;;;;;;;2079617;28;20179;-59
2022/06/07 05:46:14;;;;;;;10.40;9.45;;;;;;;;;;2079940;28;20247;-57
2022/06/07 05:47:23;;;;;;;10.68;9.52;;;;;;;;;;2080282;28;20648;-58
2022/06/07 05:48:33;;;;;;;10.38;9.38;;;;;;;;;;2074036;28;20173;-56
2022/06/07 05:49:33;;;;;;;11.02;10.00;;;;;;;;;;2074792;28;20641;-57
2022/06/07 05:50:38;;;;;;;10.65;9.75;;;;;;;;;;2074096;28;20173;-56
2022/06/07 05:51:40;;;;;;;10.70;9.45;;;;;;;;;;2071770;28;20693;-60
2022/06/07 05:52:41;;;;;;;11.57;10.38;;;;;;;;;;2080575;28;20259;-56
2022/06/07 05:53:44;;;;;;;10.82;9.65;;;;;;;;;;2074719;28;20208;-54
2022/06/07 05:54:44;;;;;;;10.63;9.48;;;;;;;;;;2081308;28;20172;-56
2022/06/07 05:55:45;;;;;;;9.65;8.75;;;;;;;;;;2078257;28;20176;-58
2022/06/07 05:56:45;;;;;;;12.77;10.10;;;;;;;;;;2078489;28;20195;-58
2022/06/07 05:57:50;;;;;;;10.05;8.40;;;;;;;;;;2077996;28;20168;-56
2022/06/07 05:58:51;;;;;;;11.38;10.05;;;;;;;;;;2080012;28;20197;-59
2022/06/07 05:59:52;;;;;;;11.57;10.38;;;;;;;;;;2079816;28;20184;-55
2022/06/07 06:00:53;;;;;;;13.85;11.55;;;;;;;;;;2069238;28;20673;-57
2022/06/07 06:01:58;;;;;;;12.25;10.93;;;;;;;;;;2071104;28;20192;-56
2022/06/07 06:03:03;;;;;;;14.35;11.48;;;;;;;;;;2070728;28;20165;-60
2022/06/07 06:04:13;;;;;;;14.07;12.13;;;;;;;;;;2069260;28;20197;-63
2022/06/07 06:05:21;;;;;;;13.00;11.68;;;;;;;;;;2070201;28;20157;-62
2022/06/07 06:06:25;;;;;;;14.57;10.82;;;;;;;;;;2078096;28;20177;-60
2022/06/07 06:07:28;;;;;;;14.38;10.48;;;;;;;;;;2068798;28;20238;-60
2022/06/07 06:11:15;;;;;;;13.23;11.55;;;;;;;;;;2084639;28;20186;-61
2022/06/07 06:12:23;;;;;;;12.32;10.98;;;;;;;;;;2081807;28;20203;-63
2022/06/07 06:13:46;;;;;;;12.15;10.95;;;;;;;;;;2079360;28;20222;-61
2022/06/07 06:14:48;;;;;;;11.65;10.45;;;;;;;;;;2081401;28;20164;-62
2022/06/07 06:16:09;;;;;;;12.40;11.10;;;;;;;;;;2075194;28;20173;-62
2022/06/07 06:17:12;;;;;;;11.60;10.50;;;;;;;;;;2075180;28;20205;-64
2022/06/07 06:18:16;;;;;;;12.38;11.13;;;;;;;;;;2075435;28;20185;-61
2022/06/07 06:19:18;;;;;;;11.98;10.85;;;;;;;;;;2074613;28;20240;-62
2022/06/07 06:20:21;;;;;;;14.27;10.77;;;;;;;;;;2083343;28;20722;-59
2022/06/07 06:21:26;;;;;;;12.05;10.95;;;;;;;;;;2075848;28;20177;-64
2022/06/07 06:22:26;;;;;;;12.52;11.35;;;;;;;;;;2074584;28;20161;-63
2022/06/07 06:23:33;;;;;;;12.88;11.43;;;;;;;;;;2075514;28;20603;-63